Time;durP1;ratioP1;P1;durP2;ratioP2;P2;SDS_P1;SDS_P2;PMS_P1;PMS_P2;Temp;Humidity;BMP_temperature;BMP_pressure;BME280_temperature;BME280_humidity;BME280_pressure;Samples;Min_cycle;Max_cycle;Signal;HPM_P1;HPM_P2
2021/06/19 00:01:09;;;;;;;;;15.75;15.75;;;;;;;;3569981;39;113839;-77
2021/06/19 00:03:36;;;;;;;;;14.75;14.75;;;;;;;;3568904;39;112190;-76
2021/06/19 00:06:02;;;;;;;;;15.75;15.75;;;;;;;;3568786;39;113247;-76
2021/06/19 00:08:29;;;;;;;;;15.75;15.75;;;;;;;;3568280;39;114403;-77
2021/06/19 00:10:56;;;;;;;;;16.00;14.75;;;;;;;;3569301;39;111929;-76
2021/06/19 00:13:22;;;;;;;;;14.50;13.25;;;;;;;;3570400;39;113875;-76
2021/06/19 00:15:52;;;;;;;;;15.25;15.25;;;;;;;;3566227;39;112815;-76
2021/06/19 00:18:20;;;;;;;;;14.00;13.00;;;;;;;;3568617;39;112224;-76
2021/06/19 00:20:47;;;;;;;;;14.75;14.50;;;;;;;;3570488;39;112622;-76
2021/06/19 00:23:13;;;;;;;;;14.00;12.00;;;;;;;;3570165;39;111826;-76
2021/06/19 00:25:41;;;;;;;;;14.50;13.75;;;;;;;;3568711;39;113357;-76
2021/06/19 00:28:07;;;;;;;;;15.75;15.00;;;;;;;;3570315;39;113978;-77
2021/06/19 00:30:34;;;;;;;;;14.50;13.00;;;;;;;;3567111;39;112086;-76
2021/06/19 00:33:00;;;;;;;;;13.00;12.50;;;;;;;;3569987;39;113872;-76
2021/06/19 00:35:28;;;;;;;;;13.50;13.25;;;;;;;;3569193;39;113955;-76
2021/06/19 00:37:55;;;;;;;;;20.75;17.00;;;;;;;;3569729;39;112217;-77
2021/06/19 00:40:21;;;;;;;;;16.50;15.50;;;;;;;;3570015;39;113465;-77
2021/06/19 00:42:52;;;;;;;;;17.00;15.50;;;;;;;;3573301;39;114792;-77
2021/06/19 00:45:19;;;;;;;;;16.25;14.00;;;;;;;;3568250;39;112486;-77
2021/06/19 00:47:45;;;;;;;;;13.00;12.50;;;;;;;;3570015;39;113998;-77
2021/06/19 00:50:12;;;;;;;;;14.75;14.75;;;;;;;;3570882;39;111836;-77
2021/06/19 00:52:40;;;;;;;;;18.00;18.00;;;;;;;;3566660;39;113880;-77
2021/06/19 00:55:07;;;;;;;;;17.25;17.25;;;;;;;;3568093;39;113166;-78
2021/06/19 00:57:34;;;;;;;;;19.25;16.25;;;;;;;;3568731;39;112094;-78
2021/06/19 01:00:01;;;;;;;;;14.25;14.25;;;;;;;;3570140;39;113455;-78
2021/06/19 01:02:27;;;;;;;;;13.25;12.00;;;;;;;;3568880;39;114082;-78
2021/06/19 01:04:54;;;;;;;;;16.50;16.00;;;;;;;;3572369;39;113212;-77
2021/06/19 01:07:20;;;;;;;;;15.75;15.00;;;;;;;;3569429;39;114115;-77
2021/06/19 01:09:48;;;;;;;;;16.50;15.25;;;;;;;;3571050;39;113474;-77
2021/06/19 01:12:22;;;;;;;;;15.25;15.25;;;;;;;;3567253;39;112597;-78
2021/06/19 01:14:49;;;;;;;;;11.25;11.00;;;;;;;;3569631;39;115239;-79
2021/06/19 01:17:15;;;;;;;;;17.75;16.25;;;;;;;;3568938;39;111897;-77
2021/06/19 01:19:42;;;;;;;;;15.00;14.75;;;;;;;;3570560;39;113301;-77
2021/06/19 01:22:08;;;;;;;;;18.00;16.75;;;;;;;;3569713;39;114270;-77
2021/06/19 01:24:36;;;;;;;;;16.50;15.00;;;;;;;;3568720;39;112526;-78
2021/06/19 01:27:03;;;;;;;;;16.25;15.75;;;;;;;;3570874;39;113278;-77
2021/06/19 01:29:29;;;;;;;;;16.25;15.75;;;;;;;;3566391;39;111925;-78
2021/06/19 01:31:56;;;;;;;;;18.00;15.00;;;;;;;;3569381;39;113335;-77
2021/06/19 01:34:22;;;;;;;;;17.25;15.00;;;;;;;;3571313;39;113885;-77
2021/06/19 01:36:49;;;;;;;;;15.50;14.75;;;;;;;;3568999;39;112006;-77
2021/06/19 01:39:15;;;;;;;;;17.00;15.50;;;;;;;;3570204;39;113221;-77
2021/06/19 01:41:43;;;;;;;;;18.50;17.00;;;;;;;;3568614;39;113888;-76
2021/06/19 01:44:11;;;;;;;;;18.75;17.00;;;;;;;;3569753;39;111980;-77
2021/06/19 01:46:40;;;;;;;;;18.00;15.00;;;;;;;;3569793;39;113492;-77
2021/06/19 01:49:07;;;;;;;;;15.25;15.25;;;;;;;;3567317;39;111883;-77
2021/06/19 01:51:34;;;;;;;;;16.00;15.25;;;;;;;;3568953;39;113364;-77
2021/06/19 01:54:01;;;;;;;;;16.50;15.25;;;;;;;;3569681;39;113939;-77
2021/06/19 01:56:27;;;;;;;;;17.25;17.25;;;;;;;;3570256;39;111784;-78
2021/06/19 01:58:55;;;;;;;;;15.25;15.25;;;;;;;;3572647;39;113968;-77
2021/06/19 02:01:22;;;;;;;;;16.00;16.00;;;;;;;;3564204;39;114376;-77
2021/06/19 02:03:49;;;;;;;;;16.25;15.00;;;;;;;;3568879;39;111867;-78
2021/06/19 02:06:16;;;;;;;;;19.25;14.50;;;;;;;;3565640;39;112445;-78
2021/06/19 02:08:43;;;;;;;;;16.75;14.75;;;;;;;;3573612;39;114146;-78
2021/06/19 02:11:10;;;;;;;;;15.00;15.00;;;;;;;;3569268;39;113415;-78
2021/06/19 02:13:36;;;;;;;;;15.75;15.25;;;;;;;;3568715;39;114002;-78
2021/06/19 02:16:05;;;;;;;;;15.75;15.75;;;;;;;;3571752;39;112025;-78
2021/06/19 02:18:32;;;;;;;;;13.75;13.00;;;;;;;;3569922;39;113285;-77
2021/06/19 02:20:58;;;;;;;;;16.25;15.75;;;;;;;;3571402;39;113978;-77
2021/06/19 02:23:25;;;;;;;;;16.75;16.75;;;;;;;;3570372;39;112949;-77
2021/06/19 02:25:53;;;;;;;;;15.50;15.50;;;;;;;;3570740;39;113404;-77
2021/06/19 02:28:20;;;;;;;;;20.25;18.00;;;;;;;;3569723;39;113839;-77
2021/06/19 02:30:47;;;;;;;;;15.75;15.00;;;;;;;;3573640;39;111897;-77
2021/06/19 02:33:16;;;;;;;;;18.25;16.00;;;;;;;;3569154;39;114128;-78
2021/06/19 02:35:44;;;;;;;;;15.75;15.00;;;;;;;;3571156;39;111952;-78
2021/06/19 02:38:10;;;;;;;;;14.75;14.00;;;;;;;;3569470;39;113159;-78
2021/06/19 02:40:38;;;;;;;;;14.00;13.00;;;;;;;;3566668;39;114282;-78
2021/06/19 02:43:05;;;;;;;;;17.00;16.00;;;;;;;;3570913;39;111871;-77
2021/06/19 02:45:32;;;;;;;;;16.50;15.00;;;;;;;;3569105;39;113627;-76
2021/06/19 02:47:59;;;;;;;;;16.50;15.50;;;;;;;;3566858;39;114107;-77
2021/06/19 02:50:27;;;;;;;;;15.25;15.25;;;;;;;;3565717;39;112724;-78
2021/06/19 02:52:54;;;;;;;;;19.75;18.00;;;;;;;;3567029;39;113224;-77
2021/06/19 02:55:22;;;;;;;;;16.50;15.25;;;;;;;;3567869;39;111883;-77
2021/06/19 02:57:48;;;;;;;;;15.00;14.50;;;;;;;;3570679;39;113529;-78
2021/06/19 03:00:18;;;;;;;;;14.00;14.00;;;;;;;;3571126;39;113830;-77
2021/06/19 03:02:45;;;;;;;;;16.50;15.00;;;;;;;;3569401;39;112087;-77
2021/06/19 03:05:12;;;;;;;;;17.00;17.00;;;;;;;;3571102;39;113784;-78
2021/06/19 03:07:40;;;;;;;;;13.50;13.50;;;;;;;;3570315;39;113680;-78
2021/06/19 03:10:08;;;;;;;;;15.50;15.00;;;;;;;;3566650;39;111807;-78
2021/06/19 03:12:35;;;;;;;;;16.50;16.50;;;;;;;;3569385;39;113652;-78
2021/06/19 03:15:01;;;;;;;;;14.00;14.00;;;;;;;;3568389;39;113286;-78
2021/06/19 03:17:28;;;;;;;;;16.25;15.00;;;;;;;;3569303;39;114387;-78
2021/06/19 03:19:54;;;;;;;;;12.25;12.25;;;;;;;;3567790;39;113003;-77
2021/06/19 03:22:21;;;;;;;;;13.25;12.25;;;;;;;;3571059;39;112196;-77
2021/06/19 03:24:49;;;;;;;;;17.25;15.75;;;;;;;;3570695;39;113351;-78
2021/06/19 03:27:17;;;;;;;;;13.00;13.00;;;;;;;;3569312;39;113916;-78
2021/06/19 03:29:43;;;;;;;;;15.75;15.00;;;;;;;;3570511;39;112105;-78
2021/06/19 03:32:10;;;;;;;;;17.00;13.00;;;;;;;;3569401;39;112423;-77
2021/06/19 03:34:37;;;;;;;;;15.25;14.00;;;;;;;;3566329;39;114160;-78
2021/06/19 03:37:06;;;;;;;;;16.00;16.00;;;;;;;;3571915;39;111826;-77
2021/06/19 03:39:34;;;;;;;;;16.50;16.25;;;;;;;;3569903;39;114041;-76
2021/06/19 03:42:02;;;;;;;;;15.00;14.00;;;;;;;;3569425;39;111790;-77
2021/06/19 03:44:29;;;;;;;;;14.75;14.75;;;;;;;;3569615;39;114156;-77
2021/06/19 03:46:56;;;;;;;;;17.25;15.25;;;;;;;;3568845;39;113920;-77
2021/06/19 03:49:22;;;;;;;;;14.50;14.50;;;;;;;;3569164;39;112097;-77
2021/06/19 03:51:49;;;;;;;;;14.50;14.25;;;;;;;;3569371;39;113412;-77
2021/06/19 03:54:16;;;;;;;;;14.75;14.00;;;;;;;;3568037;39;113856;-77
2021/06/19 03:56:42;;;;;;;;;16.25;14.50;;;;;;;;3571034;39;111846;-77
2021/06/19 03:59:10;;;;;;;;;19.50;17.50;;;;;;;;3568169;39;113057;-76
2021/06/19 04:01:37;;;;;;;;;18.25;15.00;;;;;;;;3566119;39;111742;-77
2021/06/19 04:04:03;;;;;;;;;17.25;15.75;;;;;;;;3569385;39;113721;-77
2021/06/19 04:06:30;;;;;;;;;18.25;17.50;;;;;;;;3568737;39;113877;-77
2021/06/19 04:08:58;;;;;;;;;16.00;14.50;;;;;;;;3566117;39;112355;-81
2021/06/19 04:11:24;;;;;;;;;16.00;16.00;;;;;;;;3569543;39;113752;-74
2021/06/19 04:13:51;;;;;;;;;15.75;15.75;;;;;;;;3568628;39;113733;-74
2021/06/19 04:16:19;;;;;;;;;16.50;14.75;;;;;;;;3567875;39;112001;-76
2021/06/19 04:18:45;;;;;;;;;14.25;14.25;;;;;;;;3570008;39;113616;-77
2021/06/19 04:21:12;;;;;;;;;16.75;16.25;;;;;;;;3566481;39;111936;-75
2021/06/19 04:23:38;;;;;;;;;16.50;16.00;;;;;;;;3565602;39;113361;-76
2021/06/19 04:26:05;;;;;;;;;17.00;16.50;;;;;;;;3569144;39;113934;-75
2021/06/19 04:28:31;;;;;;;;;14.00;14.00;;;;;;;;3566227;39;112886;-75
2021/06/19 04:31:00;;;;;;;;;17.50;15.75;;;;;;;;3567828;39;113385;-75
2021/06/19 04:33:28;;;;;;;;;17.50;15.25;;;;;;;;3565374;39;114069;-75
2021/06/19 04:35:55;;;;;;;;;17.75;17.25;;;;;;;;3566233;39;112202;-75
2021/06/19 04:38:22;;;;;;;;;14.00;14.00;;;;;;;;3565651;39;113436;-74
2021/06/19 04:40:53;;;;;;;;;15.50;15.50;;;;;;;;3568042;39;114441;-75
2021/06/19 04:43:25;;;;;;;;;15.75;14.50;;;;;;;;3564482;39;113413;-75
2021/06/19 04:45:52;;;;;;;;;17.75;16.25;;;;;;;;3565768;39;114377;-75
2021/06/19 04:48:18;;;;;;;;;17.50;17.00;;;;;;;;3566782;39;112277;-75
2021/06/19 04:50:46;;;;;;;;;15.25;15.25;;;;;;;;3565414;39;113261;-75
2021/06/19 04:53:13;;;;;;;;;15.00;13.75;;;;;;;;3565081;39;114962;-74
2021/06/19 04:55:40;;;;;;;;;16.00;14.00;;;;;;;;3563592;39;112149;-75
2021/06/19 04:58:06;;;;;;;;;16.50;14.00;;;;;;;;3564424;39;113335;-75
2021/06/19 05:00:33;;;;;;;;;16.00;16.00;;;;;;;;3566096;39;113826;-75
2021/06/19 05:03:00;;;;;;;;;15.25;15.00;;;;;;;;3568461;39;111900;-75
2021/06/19 05:05:28;;;;;;;;;13.00;13.00;;;;;;;;3564912;39;113801;-77
2021/06/19 05:07:56;;;;;;;;;15.75;14.50;;;;;;;;3566589;39;112264;-76
2021/06/19 05:10:23;;;;;;;;;19.50;16.00;;;;;;;;3565596;39;113523;-77
2021/06/19 05:12:49;;;;;;;;;13.75;13.75;;;;;;;;3565771;39;114253;-77
2021/06/19 05:15:18;;;;;;;;;20.75;15.50;;;;;;;;3567514;39;112426;-76
2021/06/19 05:17:44;;;;;;;;;16.00;13.00;;;;;;;;3562223;39;112351;-76
2021/06/19 05:20:12;;;;;;;;;12.25;12.25;;;;;;;;3566559;39;114480;-77
2021/06/19 05:22:38;;;;;;;;;14.25;13.00;;;;;;;;3566420;39;112555;-77
2021/06/19 05:25:07;;;;;;;;;13.00;13.00;;;;;;;;3567773;39;113651;-77
2021/06/19 05:27:33;;;;;;;;;15.50;13.50;;;;;;;;3565427;39;112559;-76
2021/06/19 05:30:00;;;;;;;;;16.00;13.75;;;;;;;;3564064;39;113510;-77
2021/06/19 05:32:26;;;;;;;;;17.75;16.00;;;;;;;;3566691;39;112748;-77
2021/06/19 05:34:53;;;;;;;;;15.50;14.25;;;;;;;;3565208;39;112609;-76
2021/06/19 05:37:19;;;;;;;;;17.25;15.00;;;;;;;;3564369;39;113244;-76
2021/06/19 05:39:46;;;;;;;;;18.25;16.00;;;;;;;;3565000;39;114309;-74
2021/06/19 05:42:14;;;;;;;;;18.25;16.50;;;;;;;;3565575;39;111887;-75
2021/06/19 05:44:41;;;;;;;;;15.00;15.00;;;;;;;;3566818;39;113361;-77
2021/06/19 05:47:07;;;;;;;;;14.75;14.50;;;;;;;;3568218;39;112069;-76
2021/06/19 05:49:34;;;;;;;;;16.25;14.00;;;;;;;;3565107;39;113630;-76
2021/06/19 05:52:01;;;;;;;;;15.25;15.25;;;;;;;;3565359;39;114159;-76
2021/06/19 05:54:27;;;;;;;;;15.50;15.50;;;;;;;;3565667;39;112110;-76
2021/06/19 05:56:54;;;;;;;;;15.75;14.25;;;;;;;;3566224;39;113366;-77
2021/06/19 05:59:22;;;;;;;;;18.25;15.00;;;;;;;;3564084;39;113377;-77
2021/06/19 06:01:49;;;;;;;;;19.75;19.75;;;;;;;;3567448;39;111923;-77
2021/06/19 06:04:15;;;;;;;;;16.75;16.75;;;;;;;;3565749;39;113142;-77
2021/06/19 06:06:42;;;;;;;;;15.00;14.75;;;;;;;;3570631;39;114098;-77
2021/06/19 06:09:09;;;;;;;;;16.00;16.00;;;;;;;;3564459;39;113204;-76
2021/06/19 06:11:35;;;;;;;;;16.50;15.00;;;;;;;;3566721;39;114449;-77
2021/06/19 06:14:02;;;;;;;;;17.50;16.00;;;;;;;;3567983;39;112377;-77
2021/06/19 06:16:30;;;;;;;;;16.75;16.75;;;;;;;;3570791;39;113368;-76
2021/06/19 06:18:56;;;;;;;;;18.75;16.50;;;;;;;;3570933;39;113895;-79
2021/06/19 06:21:23;;;;;;;;;14.75;14.50;;;;;;;;3570258;39;112695;-78
2021/06/19 06:23:49;;;;;;;;;15.00;15.00;;;;;;;;3568283;39;113363;-77
2021/06/19 06:26:16;;;;;;;;;16.75;15.00;;;;;;;;3570435;39;113928;-78
2021/06/19 06:28:43;;;;;;;;;16.25;16.25;;;;;;;;3574743;39;111924;-79
2021/06/19 06:31:11;;;;;;;;;15.50;14.00;;;;;;;;3568954;39;114439;-75
2021/06/19 06:33:38;;;;;;;;;12.00;12.00;;;;;;;;3568887;39;112761;-73
2021/06/19 06:36:06;;;;;;;;;16.50;15.00;;;;;;;;3568758;39;113204;-73
2021/06/19 06:38:32;;;;;;;;;15.75;13.00;;;;;;;;3569650;39;114042;-74
2021/06/19 06:40:59;;;;;;;;;18.25;17.00;;;;;;;;3568793;39;111859;-73
2021/06/19 06:43:25;;;;;;;;;17.25;15.00;;;;;;;;3569698;39;113392;-74
2021/06/19 06:45:52;;;;;;;;;19.75;16.50;;;;;;;;3563996;39;114023;-73
2021/06/19 06:48:19;;;;;;;;;18.25;18.25;;;;;;;;3565704;39;112919;-76
2021/06/19 06:50:46;;;;;;;;;20.00;18.00;;;;;;;;3564682;39;113225;-73
2021/06/19 06:53:13;;;;;;;;;19.00;19.00;;;;;;;;3563171;39;111971;-73
2021/06/19 06:55:40;;;;;;;;;20.75;19.50;;;;;;;;3563421;39;114192;-72
2021/06/19 06:58:06;;;;;;;;;21.25;20.75;;;;;;;;3563245;39;113773;-72
2021/06/19 07:00:33;;;;;;;;;24.00;22.75;;;;;;;;3564023;39;112073;-72
2021/06/19 07:03:00;;;;;;;;;25.50;21.75;;;;;;;;3563234;39;113318;-73
2021/06/19 07:05:26;;;;;;;;;23.00;21.25;;;;;;;;3562674;39;114118;-73
2021/06/19 07:07:54;;;;;;;;;22.25;20.75;;;;;;;;3563376;39;112146;-73
2021/06/19 07:10:21;;;;;;;;;20.50;18.00;;;;;;;;3563040;39;113462;-74
2021/06/19 07:12:48;;;;;;;;;27.75;24.50;;;;;;;;3565463;39;113909;-74
2021/06/19 07:15:15;;;;;;;;;20.00;18.75;;;;;;;;3562631;39;113420;-74
2021/06/19 07:17:42;;;;;;;;;20.50;20.00;;;;;;;;3562259;39;113894;-73
2021/06/19 07:20:09;;;;;;;;;20.25;18.50;;;;;;;;3562323;39;114427;-73
2021/06/19 07:22:36;;;;;;;;;19.75;19.75;;;;;;;;3560976;39;113582;-73
2021/06/19 07:25:05;;;;;;;;;22.00;20.00;;;;;;;;3560924;39;113697;-73
2021/06/19 07:27:32;;;;;;;;;19.75;19.75;;;;;;;;3560948;39;112725;-74
2021/06/19 07:29:59;;;;;;;;;19.75;19.50;;;;;;;;3562148;39;112399;-80
2021/06/19 07:32:25;;;;;;;;;23.25;22.00;;;;;;;;3565746;39;113724;-82
2021/06/19 07:34:52;;;;;;;;;24.00;22.00;;;;;;;;3569918;39;112260;-75
2021/06/19 07:37:19;;;;;;;;;22.75;22.75;;;;;;;;3563183;39;115700;-75
2021/06/19 07:39:45;;;;;;;;;21.25;20.00;;;;;;;;3566478;39;112265;-75
2021/06/19 07:42:13;;;;;;;;;20.25;19.00;;;;;;;;3568489;39;113209;-76
2021/06/19 07:44:40;;;;;;;;;19.00;18.00;;;;;;;;3564352;39;113590;-75
2021/06/19 07:47:06;;;;;;;;;23.25;21.50;;;;;;;;3563500;39;112777;-74
2021/06/19 07:49:33;;;;;;;;;20.00;18.75;;;;;;;;3561547;39;113303;-76
2021/06/19 07:52:01;;;;;;;;;20.00;20.00;;;;;;;;3561793;39;114074;-78
2021/06/19 07:54:28;;;;;;;;;19.25;19.25;;;;;;;;3570828;39;111970;-81
2021/06/19 07:56:54;;;;;;;;;22.25;20.50;;;;;;;;3569163;39;113813;-79
2021/06/19 07:59:22;;;;;;;;;19.75;19.75;;;;;;;;3569295;39;112268;-80
2021/06/19 08:01:49;;;;;;;;;23.75;23.50;;;;;;;;3569152;39;113593;-78
2021/06/19 08:04:15;;;;;;;;;24.25;22.00;;;;;;;;3564985;39;117025;-80
2021/06/19 08:06:42;;;;;;;;;20.75;19.75;;;;;;;;3568622;39;112047;-76
2021/06/19 08:09:08;;;;;;;;;18.00;18.00;;;;;;;;3568359;39;113686;-77
2021/06/19 08:11:35;;;;;;;;;17.00;17.00;;;;;;;;3565660;39;114382;-77
2021/06/19 08:14:02;;;;;;;;;18.75;18.50;;;;;;;;3569606;39;111947;-89
2021/06/19 08:16:30;;;;;;;;;20.25;19.50;;;;;;;;3569953;39;113274;-81
2021/06/19 08:18:56;;;;;;;;;21.50;21.50;;;;;;;;3569545;39;111761;-82
2021/06/19 08:21:23;;;;;;;;;18.50;18.50;;;;;;;;3569146;39;113433;-80
2021/06/19 08:23:49;;;;;;;;;17.33;17.00;;;;;;;;3566624;39;113873;-81
2021/06/19 08:26:16;;;;;;;;;18.33;17.33;;;;;;;;3566204;39;111872;-84
2021/06/19 08:28:42;;;;;;;;;20.00;19.00;;;;;;;;3569629;39;113522;-84
2021/06/19 08:31:09;;;;;;;;;21.33;20.67;;;;;;;;3568187;39;113829;-81
2021/06/19 08:33:37;;;;;;;;;13.67;13.67;;;;;;;;3566363;39;111679;-79
2021/06/19 08:36:04;;;;;;;;;18.00;15.67;;;;;;;;3570296;39;113340;-85
2021/06/19 08:38:30;;;;;;;;;16.33;16.33;;;;;;;;3570599;39;113809;-83
2021/06/19 08:40:58;;;;;;;;;17.00;15.67;;;;;;;;3569529;39;113195;-79
2021/06/19 08:43:24;;;;;;;;;15.67;14.33;;;;;;;;3565858;39;114008;-83
2021/06/19 08:45:52;;;;;;;;;15.33;14.00;;;;;;;;3567789;39;112565;-81
2021/06/19 08:48:20;;;;;;;;;24.33;22.00;;;;;;;;3569287;39;113377;-82
2021/06/19 08:50:49;;;;;;;;;20.67;16.67;;;;;;;;3568397;39;113786;-83
2021/06/19 08:53:16;;;;;;;;;16.33;14.33;;;;;;;;3569502;39;112540;-84
2021/06/19 08:55:43;;;;;;;;;16.33;15.67;;;;;;;;3567036;39;113208;-78
2021/06/19 08:58:09;;;;;;;;;15.33;14.67;;;;;;;;3565714;39;113703;-82
2021/06/19 09:00:36;;;;;;;;;14.00;14.00;;;;;;;;3572542;39;111747;-79
2021/06/19 09:03:02;;;;;;;;;12.33;12.33;;;;;;;;3567637;39;113931;-78
2021/06/19 09:05:29;;;;;;;;;13.00;13.00;;;;;;;;3565833;39;111844;-79
2021/06/19 09:07:58;;;;;;;;;11.33;11.00;;;;;;;;3568973;39;113209;-78
2021/06/19 09:10:26;;;;;;;;;11.67;11.33;;;;;;;;3568884;39;113739;-83
2021/06/19 09:12:57;;;;;;;;;12.00;11.00;;;;;;;;3568993;39;112301;-87
2021/06/19 09:15:24;;;;;;;;;13.33;12.67;;;;;;;;3568967;39;113223;-82
2021/06/19 09:18:00;;;;;;;;;13.00;13.00;;;;;;;;3568317;39;114154;-78
2021/06/19 09:20:37;;;;;;;;;15.00;15.00;;;;;;;;3568399;39;112890;-81
2021/06/19 09:23:06;;;;;;;;;13.00;11.33;;;;;;;;3569934;39;114748;-82
2021/06/19 09:25:33;;;;;;;;;13.33;13.00;;;;;;;;3566517;39;111983;-82
2021/06/19 09:28:00;;;;;;;;;13.67;13.67;;;;;;;;3569381;39;113641;-82
2021/06/19 09:30:28;;;;;;;;;15.67;12.33;;;;;;;;3566113;39;114207;-83
2021/06/19 09:32:55;;;;;;;;;11.00;11.00;;;;;;;;3567424;39;112041;-82
2021/06/19 09:35:24;;;;;;;;;12.33;10.33;;;;;;;;3566967;39;113545;-82
2021/06/19 09:37:51;;;;;;;;;13.00;12.67;;;;;;;;3566520;39;114260;-82
2021/06/19 09:40:24;;;;;;;;;13.00;13.00;;;;;;;;3567015;39;112322;-83
2021/06/19 09:42:51;;;;;;;;;13.00;12.67;;;;;;;;3567205;39;113186;-83
2021/06/19 09:45:20;;;;;;;;;12.00;11.00;;;;;;;;3570594;39;114041;-82
2021/06/19 09:47:47;;;;;;;;;14.67;14.00;;;;;;;;3568388;39;113352;-82
2021/06/19 09:50:14;;;;;;;;;14.67;14.67;;;;;;;;3568903;39;114103;-82
2021/06/19 09:52:40;;;;;;;;;13.67;12.00;;;;;;;;3568903;39;113348;-83
2021/06/19 09:55:11;;;;;;;;;10.67;10.67;;;;;;;;3570846;39;113450;-81
2021/06/19 09:57:40;;;;;;;;;15.00;13.00;;;;;;;;3566568;39;114775;-82
2021/06/19 10:00:07;;;;;;;;;13.33;12.00;;;;;;;;3567068;39;112495;-82
2021/06/19 10:02:35;;;;;;;;;11.00;11.00;;;;;;;;3568908;39;114196;-81
2021/06/19 10:05:02;;;;;;;;;15.00;13.33;;;;;;;;3573339;39;114009;-83
2021/06/19 10:07:30;;;;;;;;;10.00;10.00;;;;;;;;3570198;39;113544;-82
2021/06/19 10:09:58;;;;;;;;;10.33;10.33;;;;;;;;3569066;39;113807;-82
2021/06/19 10:12:25;;;;;;;;;13.00;12.00;;;;;;;;3569949;39;112166;-83
2021/06/19 10:14:54;;;;;;;;;12.33;10.67;;;;;;;;3569752;39;113500;-82
2021/06/19 10:17:23;;;;;;;;;11.00;11.00;;;;;;;;3569240;39;113885;-83
2021/06/19 10:19:51;;;;;;;;;9.00;9.00;;;;;;;;3569766;39;112108;-83
2021/06/19 10:22:18;;;;;;;;;10.33;10.33;;;;;;;;3569513;39;113622;-81
2021/06/19 10:24:45;;;;;;;;;9.67;9.67;;;;;;;;3569683;39;113994;-82
2021/06/19 10:27:16;;;;;;;;;8.33;8.33;;;;;;;;3572086;39;111926;-82
2021/06/19 10:29:44;;;;;;;;;10.00;10.00;;;;;;;;3569980;39;113859;-82
2021/06/19 10:32:12;;;;;;;;;8.33;8.00;;;;;;;;3569050;39;112174;-81
2021/06/19 10:34:39;;;;;;;;;11.33;9.33;;;;;;;;3570740;39;113187;-81
2021/06/19 10:37:07;;;;;;;;;10.67;10.00;;;;;;;;3568597;39;113950;-77
2021/06/19 10:39:42;;;;;;;;;10.00;10.00;;;;;;;;3566920;39;111868;-79
2021/06/19 10:42:26;;;;;;;;;12.00;11.00;;;;;;;;3569331;39;113305;-80
2021/06/19 10:44:58;;;;;;;;;10.00;10.00;;;;;;;;3570119;39;114055;-79
2021/06/19 10:47:27;;;;;;;;;8.67;8.67;;;;;;;;3569309;39;112124;-77
2021/06/19 10:49:54;;;;;;;;;12.67;12.67;;;;;;;;3571293;39;113463;-81
2021/06/19 10:52:22;;;;;;;;;10.00;10.00;;;;;;;;3568483;39;112813;-78
2021/06/19 10:55:03;;;;;;;;;12.00;10.33;;;;;;;;3568686;39;113370;-77
2021/06/19 10:57:41;;;;;;;;;10.33;10.33;;;;;;;;3566268;39;113838;-77
2021/06/19 11:00:23;;;;;;;;;9.67;9.00;;;;;;;;3566604;39;112195;-76
2021/06/19 11:02:51;;;;;;;;;10.33;10.33;;;;;;;;3565583;39;113998;-75
2021/06/19 11:05:33;;;;;;;;;11.00;10.33;;;;;;;;3567027;39;114035;-76
2021/06/19 11:07:59;;;;;;;;;12.33;11.67;;;;;;;;3567706;39;114496;-79
2021/06/19 11:10:40;;;;;;;;;9.00;9.00;;;;;;;;3569130;39;113847;-78
2021/06/19 11:13:22;;;;;;;;;10.33;10.33;;;;;;;;3566810;39;114165;-79
2021/06/19 11:15:48;;;;;;;;;10.33;10.00;;;;;;;;3568387;39;113488;-80
2021/06/19 11:18:37;;;;;;;;;10.00;10.00;;;;;;;;3569368;39;114281;-78
2021/06/19 11:21:09;;;;;;;;;9.00;9.00;;;;;;;;3564681;39;112123;-76
2021/06/19 11:23:50;;;;;;;;;11.33;9.00;;;;;;;;3566491;39;113227;-77
2021/06/19 11:26:31;;;;;;;;;10.00;8.00;;;;;;;;3567337;39;114664;-76
2021/06/19 11:28:58;;;;;;;;;10.33;9.67;;;;;;;;3569710;39;111897;-76
2021/06/19 11:31:24;;;;;;;;;8.00;8.00;;;;;;;;3568990;39;113836;-78
2021/06/19 11:33:54;;;;;;;;;9.67;9.67;;;;;;;;3568772;39;113873;-77
2021/06/19 11:36:24;;;;;;;;;11.67;9.33;;;;;;;;3571923;39;112438;-79
2021/06/19 11:38:52;;;;;;;;;11.00;10.00;;;;;;;;3569445;39;114098;-78
2021/06/19 11:41:20;;;;;;;;;13.00;13.00;;;;;;;;3569387;39;113571;-76
2021/06/19 11:43:47;;;;;;;;;12.00;12.00;;;;;;;;3568418;39;113363;-75
2021/06/19 11:46:14;;;;;;;;;11.33;11.33;;;;;;;;3563711;39;114491;-76
2021/06/19 11:48:49;;;;;;;;;12.33;12.33;;;;;;;;3560294;39;111974;-74
2021/06/19 11:51:18;;;;;;;;;12.00;11.00;;;;;;;;3561578;39;113989;-76
2021/06/19 11:53:45;;;;;;;;;12.33;12.33;;;;;;;;3559663;39;113987;-76
2021/06/19 11:56:12;;;;;;;;;11.67;11.67;;;;;;;;3568175;39;113032;-80
2021/06/19 11:58:42;;;;;;;;;13.00;12.33;;;;;;;;3572143;39;113199;-74
2021/06/19 12:01:09;;;;;;;;;10.67;10.00;;;;;;;;3566834;39;112367;-78
2021/06/19 12:03:36;;;;;;;;;12.67;12.00;;;;;;;;3565370;39;113272;-73
2021/06/19 12:06:02;;;;;;;;;13.67;12.67;;;;;;;;3568444;39;113833;-76
2021/06/19 12:08:30;;;;;;;;;12.33;12.33;;;;;;;;3568435;39;111930;-75
2021/06/19 12:10:58;;;;;;;;;12.33;12.33;;;;;;;;3569938;39;113135;-75
2021/06/19 12:13:29;;;;;;;;;14.00;11.67;;;;;;;;3565577;39;113725;-76
2021/06/19 12:15:56;;;;;;;;;14.00;12.00;;;;;;;;3567899;39;111876;-79
2021/06/19 12:18:22;;;;;;;;;16.00;14.67;;;;;;;;3569473;39;113135;-78
2021/06/19 12:20:59;;;;;;;;;13.33;12.67;;;;;;;;3568689;39;112291;-80
2021/06/19 12:23:34;;;;;;;;;12.00;12.00;;;;;;;;3567574;39;112728;-80
2021/06/19 12:26:06;;;;;;;;;16.67;15.00;;;;;;;;3568293;39;113807;-79
2021/06/19 12:28:33;;;;;;;;;14.67;12.67;;;;;;;;3567524;39;112343;-79
2021/06/19 12:31:00;;;;;;;;;15.00;14.33;;;;;;;;3568496;39;113223;-79
2021/06/19 12:33:28;;;;;;;;;9.00;9.00;;;;;;;;3566881;39;115883;-77
2021/06/19 12:35:55;;;;;;;;;13.00;11.33;;;;;;;;3569323;39;112274;-81
2021/06/19 12:38:22;;;;;;;;;10.67;10.67;;;;;;;;3568994;39;113566;-81
2021/06/19 12:40:50;;;;;;;;;10.00;10.00;;;;;;;;3571027;39;113995;-79
2021/06/19 12:43:16;;;;;;;;;9.00;9.00;;;;;;;;3569755;39;114042;-79
2021/06/19 12:45:44;;;;;;;;;11.33;11.00;;;;;;;;3568067;39;113968;-81
2021/06/19 12:48:18;;;;;;;;;13.67;11.67;;;;;;;;3568407;39;112105;-71
2021/06/19 12:50:45;;;;;;;;;12.00;12.00;;;;;;;;3566777;39;113190;-72
2021/06/19 12:53:13;;;;;;;;;9.00;8.33;;;;;;;;3566927;39;113633;-76
2021/06/19 12:55:40;;;;;;;;;13.33;13.00;;;;;;;;3567440;39;112218;-74
2021/06/19 12:58:10;;;;;;;;;11.00;10.67;;;;;;;;3568080;39;113174;-71
2021/06/19 13:00:38;;;;;;;;;10.33;9.00;;;;;;;;3565787;39;114754;-71
2021/06/19 13:03:04;;;;;;;;;19.00;18.00;;;;;;;;3568339;39;111997;-71
2021/06/19 13:05:31;;;;;;;;;10.33;10.33;;;;;;;;3569324;39;113945;-76
2021/06/19 13:08:09;;;;;;;;;10.33;10.33;;;;;;;;3567188;39;113811;-79
2021/06/19 13:10:35;;;;;;;;;9.33;9.33;;;;;;;;3566270;39;113376;-78
2021/06/19 13:13:02;;;;;;;;;8.67;8.67;;;;;;;;3569062;39;114521;-80
2021/06/19 13:15:30;;;;;;;;;10.00;10.00;;;;;;;;3568018;39;112414;-83
2021/06/19 13:17:57;;;;;;;;;8.33;8.00;;;;;;;;3569144;39;113272;-84
2021/06/19 13:20:24;;;;;;;;;9.33;7.33;;;;;;;;3565403;39;114265;-78
2021/06/19 13:23:01;;;;;;;;;8.33;8.33;;;;;;;;3565220;39;111784;-77
2021/06/19 13:25:50;;;;;;;;;8.67;8.67;;;;;;;;3569202;39;113255;-77
2021/06/19 13:28:17;;;;;;;;;9.00;8.00;;;;;;;;3566998;39;112429;-77
2021/06/19 13:30:45;;;;;;;;;12.00;12.00;;;;;;;;3569351;39;113700;-74
2021/06/19 13:35:47;;;;;;;;;85.00;83.50;;;;;;;;3581922;39;111995;-71
2021/06/19 14:37:51;;;;;;;;;11.00;11.00;;;;;;;;3553927;39;1142800;-73
2021/06/19 14:40:18;;;;;;;;;8.00;8.00;;;;;;;;3586559;39;114188;-72
2021/06/19 14:42:45;;;;;;;;;12.67;11.67;;;;;;;;3587279;39;111848;-73
2021/06/19 14:45:12;;;;;;;;;10.00;10.00;;;;;;;;3586502;39;113158;-71
2021/06/19 14:47:41;;;;;;;;;10.00;10.00;;;;;;;;3587139;39;113944;-71
2021/06/19 14:50:08;;;;;;;;;7.00;7.00;;;;;;;;3586282;39;111819;-72
2021/06/19 14:52:35;;;;;;;;;12.33;10.33;;;;;;;;3587936;39;113793;-72
2021/06/19 14:55:03;;;;;;;;;13.33;12.67;;;;;;;;3587949;39;113788;-72
2021/06/19 14:57:30;;;;;;;;;12.00;12.00;;;;;;;;3590616;39;112000;-71
2021/06/19 14:59:56;;;;;;;;;11.00;11.00;;;;;;;;3585741;39;113965;-72
2021/06/19 15:02:23;;;;;;;;;13.00;12.00;;;;;;;;3587030;39;112057;-72
2021/06/19 15:04:50;;;;;;;;;13.33;11.00;;;;;;;;3584533;39;112417;-73
2021/06/19 15:07:17;;;;;;;;;12.00;12.00;;;;;;;;3589361;39;113754;-71
2021/06/19 15:09:44;;;;;;;;;11.67;11.67;;;;;;;;3587170;39;111739;-71
2021/06/19 15:12:12;;;;;;;;;13.00;11.00;;;;;;;;3586254;39;113442;-78